Time;durP1;ratioP1;P1;durP2;ratioP2;P2;SDS_P1;SDS_P2;PMS_P1;PMS_P2;Temp;Humidity;BMP_temperature;BMP_pressure;BME280_temperature;BME280_humidity;BME280_pressure;Samples;Min_cycle;Max_cycle;Signal;HPM_P1;HPM_P2
2021/10/15 00:00:27;;;;;;;;;25.25;24.25;;;;;15.16;52.83;101449.81;2091852;28;46087;-47
2021/10/15 00:01:28;;;;;;;;;23.25;22.75;;;;;15.15;52.87;101445.38;2083308;28;48265;-49
2021/10/15 00:02:29;;;;;;;;;19.50;18.75;;;;;15.16;52.53;101449.81;2083335;28;46929;-50
2021/10/15 00:03:30;;;;;;;;;26.00;24.80;;;;;15.15;52.70;101448.03;2092011;28;48519;-49
2021/10/15 00:04:30;;;;;;;;;22.50;22.00;;;;;15.14;52.50;101448.97;2092308;28;48283;-49
2021/10/15 00:05:31;;;;;;;;;23.75;22.75;;;;;15.15;52.49;101452.53;2092107;28;46867;-48
2021/10/15 00:06:32;;;;;;;;;22.00;22.00;;;;;15.13;52.73;101444.56;2083267;28;46020;-52
2021/10/15 00:07:32;;;;;;;;;21.50;20.50;;;;;15.14;52.84;101445.44;2075186;28;47337;-49
2021/10/15 00:08:33;;;;;;;;;23.25;23.25;;;;;15.13;52.42;101449.91;2080563;28;47992;-47
2021/10/15 00:09:33;;;;;;;;;22.25;21.00;;;;;15.13;52.77;101446.34;2092060;28;47865;-49
2021/10/15 00:10:34;;;;;;;;;24.75;22.00;;;;;15.12;52.73;101449.91;2092202;28;46301;-50
2021/10/15 00:11:34;;;;;;;;;23.75;23.75;;;;;15.11;52.84;101440.13;2092227;28;47627;-49
2021/10/15 00:12:35;;;;;;;;;23.50;22.50;;;;;15.13;52.38;101451.69;2092388;28;45227;-45
2021/10/15 00:13:36;;;;;;;;;23.20;21.40;;;;;15.11;52.42;101443.69;2083021;28;47309;-50
2021/10/15 00:14:36;;;;;;;;;24.75;24.75;;;;;15.11;52.66;101450.84;2083035;28;47120;-48
2021/10/15 00:15:37;;;;;;;;;22.50;22.50;;;;;15.10;52.40;101449.09;2091565;28;48110;-48
2021/10/15 00:16:37;;;;;;;;;23.25;21.00;;;;;15.10;52.59;101449.97;2092179;28;45197;-48
2021/10/15 00:17:38;;;;;;;;;22.50;22.25;;;;;15.10;52.62;101449.97;2091908;28;45417;-50
2021/10/15 00:18:38;;;;;;;;;20.25;19.75;;;;;15.11;52.15;101456.19;2092408;28;46803;-50
2021/10/15 00:19:39;;;;;;;;;20.50;20.25;;;;;15.10;52.50;101449.97;2091825;28;48257;-48
2021/10/15 00:20:39;;;;;;;;;23.75;23.75;;;;;15.10;52.87;101449.97;2083371;28;48152;-50
2021/10/15 00:21:40;;;;;;;;;26.75;24.00;;;;;15.09;52.26;101450.88;2082979;28;48173;-49
2021/10/15 00:22:40;;;;;;;;;23.00;22.75;;;;;15.10;52.35;101446.41;2090810;28;46950;-52
2021/10/15 00:23:41;;;;;;;;;24.00;24.00;;;;;15.08;52.59;101457.16;2091957;28;47496;-49
2021/10/15 00:24:41;;;;;;;;;22.00;22.00;;;;;15.07;52.65;101458.06;2083298;28;47192;-50
2021/10/15 00:25:42;;;;;;;;;26.00;26.00;;;;;15.08;52.38;101453.59;2082905;28;47180;-51
2021/10/15 00:26:42;;;;;;;;;26.00;26.00;;;;;15.08;52.79;101456.28;2095034;28;47532;-49
2021/10/15 00:27:43;;;;;;;;;25.25;24.50;;;;;15.09;52.77;101450.00;2091883;28;47272;-50
2021/10/15 00:28:43;;;;;;;;;25.00;25.00;;;;;15.08;52.91;101456.28;2083158;28;47378;-49
2021/10/15 00:29:43;;;;;;;;;27.25;25.50;;;;;15.08;52.48;101454.47;2084079;28;47498;-50
2021/10/15 00:30:44;;;;;;;;;23.25;21.75;;;;;15.07;52.60;101458.06;2093506;28;45655;-48
2021/10/15 00:31:44;;;;;;;;;25.75;24.25;;;;;15.08;52.85;101449.13;2091605;28;47539;-50
2021/10/15 00:32:45;;;;;;;;;23.75;22.00;;;;;15.07;53.03;101447.38;2092169;28;48118;-48
2021/10/15 00:33:45;;;;;;;;;23.50;22.50;;;;;15.08;53.03;101438.44;2082826;28;47209;-51
2021/10/15 00:34:46;;;;;;;;;24.75;23.50;;;;;15.08;53.26;101449.13;2086085;28;47141;-48
2021/10/15 00:35:46;;;;;;;;;25.75;25.00;;;;;15.09;52.84;101444.66;2086405;28;48217;-51
2021/10/15 00:36:47;;;;;;;;;24.50;22.00;;;;;15.10;53.15;101446.41;2087100;28;45124;-50
2021/10/15 00:37:48;;;;;;;;;22.25;22.25;;;;;15.09;52.59;101444.66;2089112;28;47128;-47
2021/10/15 00:38:49;;;;;;;;;27.20;24.80;;;;;15.10;52.71;101446.41;2092194;28;45303;-48
2021/10/15 00:39:49;;;;;;;;;26.50;25.25;;;;;15.10;52.69;101444.63;2091782;28;45236;-48
2021/10/15 00:40:50;;;;;;;;;24.50;24.50;;;;;15.10;52.92;101447.28;2092083;28;46040;-48
2021/10/15 00:41:50;;;;;;;;;23.25;23.25;;;;;15.09;52.84;101442.00;2082994;28;45967;-49
2021/10/15 00:42:51;;;;;;;;;25.75;25.25;;;;;15.11;52.86;101450.84;2088085;28;47291;-49
2021/10/15 00:44:05;;;;;;;;;25.00;24.00;;;;;15.11;52.92;101445.50;2084834;28;47018;-50
2021/10/15 00:45:07;;;;;;;;;21.80;21.80;;;;;15.11;52.98;101446.38;2091670;28;47336;-49
2021/10/15 00:46:07;;;;;;;;;23.80;23.60;;;;;15.11;53.22;101440.13;2087457;28;47368;-49
2021/10/15 00:47:08;;;;;;;;;25.00;24.00;;;;;15.11;53.30;101446.38;2090369;28;48089;-45
2021/10/15 00:48:08;;;;;;;;;27.25;24.75;;;;;15.10;52.84;101444.63;2087693;28;47217;-50
2021/10/15 00:49:12;;;;;;;;;20.00;20.00;;;;;15.09;53.41;101442.88;2088345;28;47257;-51
2021/10/15 00:50:12;;;;;;;;;24.40;24.40;;;;;15.09;53.25;101445.53;2085386;28;48359;-47
2021/10/15 00:51:13;;;;;;;;;26.50;26.50;;;;;15.08;53.15;101438.44;2082909;28;46043;-51
2021/10/15 00:52:14;;;;;;;;;28.75;27.50;;;;;15.09;52.99;101440.19;2083137;28;48102;-48
2021/10/15 00:53:15;;;;;;;;;23.20;23.20;;;;;15.08;53.41;101437.56;2088073;28;47632;-50
2021/10/15 00:54:16;;;;;;;;;25.50;24.50;;;;;15.07;52.90;101436.69;2088267;28;48191;-52
2021/10/15 00:55:17;;;;;;;;;23.75;23.00;;;;;15.08;53.02;101440.22;2091327;28;48281;-48
2021/10/15 00:56:18;;;;;;;;;28.75;26.50;;;;;15.06;53.34;101437.59;2092050;28;47218;-51
2021/10/15 00:57:19;;;;;;;;;26.60;25.00;;;;;15.06;52.92;101432.25;2091662;28;45415;-52
2021/10/15 00:58:20;;;;;;;;;26.80;24.20;;;;;15.06;53.35;101439.41;2091916;28;47176;-51
2021/10/15 00:59:21;;;;;;;;;27.75;27.25;;;;;15.06;53.32;101439.41;2091684;28;48117;-50
2021/10/15 01:00:21;;;;;;;;;25.50;24.75;;;;;15.04;53.58;101439.47;2091778;28;47006;-48
2021/10/15 01:01:22;;;;;;;;;21.25;21.25;;;;;15.04;53.45;101438.59;2091509;28;46428;-49
2021/10/15 01:02:22;;;;;;;;;28.75;27.75;;;;;15.04;53.55;101443.94;2082862;28;47156;-50
2021/10/15 01:03:23;;;;;;;;;27.25;27.00;;;;;15.01;53.79;101435.09;2082436;28;48396;-52
2021/10/15 01:04:23;;;;;;;;;26.00;23.75;;;;;15.01;53.65;101436.88;2086677;28;47225;-47
2021/10/15 01:05:24;;;;;;;;;27.50;27.50;;;;;15.00;53.69;101437.81;2082667;28;45413;-51
2021/10/15 01:06:26;;;;;;;;;28.50;25.50;;;;;15.01;53.55;101436.88;2082855;28;47561;-47
2021/10/15 01:07:28;;;;;;;;;26.00;24.80;;;;;15.00;53.66;101429.78;2091519;28;47435;-47
2021/10/15 01:08:28;;;;;;;;;30.80;27.60;;;;;14.99;53.41;101428.00;2091875;28;47487;-50
2021/10/15 01:09:33;;;;;;;;;24.75;24.75;;;;;14.99;53.29;101433.34;2091540;28;47842;-51
2021/10/15 01:10:33;;;;;;;;;25.80;24.80;;;;;14.97;53.39;101435.19;2092029;28;45075;-50
2021/10/15 01:11:34;;;;;;;;;27.00;25.50;;;;;14.97;53.90;101430.72;2091718;28;48259;-49
2021/10/15 01:12:36;;;;;;;;;27.50;26.25;;;;;14.95;53.90;101435.25;2074911;28;45343;-51
2021/10/15 01:13:38;;;;;;;;;26.20;25.80;;;;;14.95;53.38;101431.69;2074682;28;47751;-46
2021/10/15 01:14:38;;;;;;;;;23.80;23.00;;;;;14.92;53.34;101430.00;2083017;28;45335;-52
2021/10/15 01:15:39;;;;;;;;;27.00;26.00;;;;;14.92;53.86;101430.00;2082406;28;47783;-51
2021/10/15 01:16:39;;;;;;;;;25.50;25.50;;;;;14.91;53.82;101428.25;2080479;28;48089;-50
2021/10/15 01:17:39;;;;;;;;;26.50;25.75;;;;;14.90;53.91;101426.50;2082417;28;48054;-49
2021/10/15 01:18:42;;;;;;;;;28.50;28.50;;;;;14.90;53.98;101422.94;2082894;28;46558;-50
2021/10/15 01:19:42;;;;;;;;;33.60;31.00;;;;;14.88;53.79;101428.34;2074277;28;47436;-52
2021/10/15 01:20:43;;;;;;;;;37.25;33.00;;;;;14.88;53.82;101428.34;2063477;28;45884;-51
2021/10/15 01:21:44;;;;;;;;;38.25;32.00;;;;;14.88;53.90;101430.13;2070511;28;47529;-47
2021/10/15 01:22:44;;;;;;;;;31.75;29.00;;;;;14.87;53.57;101426.59;2085912;28;47214;-52
2021/10/15 01:23:45;;;;;;;;;36.50;31.75;;;;;14.87;53.84;101431.06;2082631;28;47970;-49
2021/10/15 01:24:45;;;;;;;;;28.25;28.25;;;;;14.86;53.66;101430.16;2082974;28;46191;-48
2021/10/15 01:25:46;;;;;;;;;29.50;25.75;;;;;14.85;53.71;101423.06;2082516;28;48459;-49
2021/10/15 01:26:47;;;;;;;;;24.75;23.75;;;;;14.84;53.78;101423.09;2083674;28;48084;-49
2021/10/15 01:27:47;;;;;;;;;27.25;25.00;;;;;14.82;53.79;101419.59;2087537;28;47189;-49
2021/10/15 01:28:48;;;;;;;;;28.00;27.50;;;;;14.80;54.04;101418.78;2082810;28;47279;-50
2021/10/15 01:29:49;;;;;;;;;32.60;29.20;;;;;14.78;54.10;101413.47;2075809;28;48297;-49
2021/10/15 01:30:50;;;;;;;;;30.00;26.75;;;;;14.77;54.01;101416.19;2074523;28;47201;-50
2021/10/15 01:31:50;;;;;;;;;27.75;24.00;;;;;14.77;54.03;101411.72;2074497;28;46325;-52
2021/10/15 01:32:51;;;;;;;;;32.00;29.25;;;;;14.77;53.88;101409.03;2082648;28;47331;-49
2021/10/15 01:33:55;;;;;;;;;24.75;24.25;;;;;14.76;54.32;101409.97;2082606;28;47203;-56
2021/10/15 01:34:56;;;;;;;;;31.00;26.40;;;;;14.76;54.35;101415.31;2076619;28;47246;-50
2021/10/15 01:35:56;;;;;;;;;26.00;24.75;;;;;14.76;54.07;101409.09;2082435;28;47352;-52
2021/10/15 01:36:57;;;;;;;;;28.25;28.00;;;;;14.75;54.42;101405.53;2091603;28;48319;-51
2021/10/15 01:37:57;;;;;;;;;24.50;22.75;;;;;14.76;54.11;101411.78;2082524;28;48636;-47
2021/10/15 01:38:58;;;;;;;;;30.50;29.00;;;;;14.76;54.11;101407.28;2082715;28;47262;-47
2021/10/15 01:39:58;;;;;;;;;26.25;24.75;;;;;14.76;54.52;101404.63;2091543;28;47434;-49
2021/10/15 01:40:58;;;;;;;;;24.50;24.00;;;;;14.76;54.27;101407.28;2091468;28;47374;-50
2021/10/15 01:41:59;;;;;;;;;27.00;25.50;;;;;14.76;53.87;101409.09;2083043;28;47789;-51
2021/10/15 01:43:00;;;;;;;;;26.25;24.50;;;;;14.76;53.96;101415.31;2088382;28;47407;-49
2021/10/15 01:44:00;;;;;;;;;23.50;23.50;;;;;14.74;53.96;101406.47;2080306;28;45511;-51
2021/10/15 01:45:01;;;;;;;;;35.50;30.75;;;;;14.74;54.46;101406.47;2074104;28;47130;-51
2021/10/15 01:46:01;;;;;;;;;25.25;24.50;;;;;14.74;54.09;101411.81;2082208;28;47998;-49
2021/10/15 01:47:02;;;;;;;;;27.75;26.75;;;;;14.75;54.08;101410.88;2091366;28;48819;-48
2021/10/15 01:48:03;;;;;;;;;30.50;30.00;;;;;14.73;54.19;101402.88;2091436;28;47081;-50
2021/10/15 01:49:04;;;;;;;;;24.00;23.80;;;;;14.73;54.06;101408.22;2091474;28;47356;-47
2021/10/15 01:50:05;;;;;;;;;23.75;23.75;;;;;14.72;54.00;101409.16;2090020;28;48450;-47
2021/10/15 01:51:05;;;;;;;;;20.25;20.25;;;;;14.74;54.36;101409.13;2084624;28;47118;-50
2021/10/15 01:52:06;;;;;;;;;28.50;26.00;;;;;14.72;54.07;101409.16;2090421;28;46294;-46
2021/10/15 01:53:06;;;;;;;;;24.75;24.00;;;;;14.72;54.15;101405.59;2081809;28;48249;-48
2021/10/15 01:54:07;;;;;;;;;23.25;23.25;;;;;14.71;53.84;101401.19;2082919;28;47186;-47
2021/10/15 01:55:09;;;;;;;;;22.25;21.75;;;;;14.70;54.19;101402.97;2083498;28;47137;-46
2021/10/15 01:56:10;;;;;;;;;26.00;23.20;;;;;14.70;53.66;101402.97;2090056;28;47429;-46
2021/10/15 01:57:10;;;;;;;;;22.25;20.75;;;;;14.69;54.12;101393.22;2091367;28;47295;-46
2021/10/15 01:58:11;;;;;;;;;24.75;24.50;;;;;14.68;54.26;101399.47;2091189;28;45889;-47
2021/10/15 01:59:11;;;;;;;;;25.00;23.00;;;;;14.68;54.01;101394.13;2089805;28;47352;-48
2021/10/15 02:00:13;;;;;;;;;21.75;21.25;;;;;14.68;54.15;101388.78;2082485;28;48085;-48
2021/10/15 02:01:14;;;;;;;;;24.80;24.60;;;;;14.67;54.52;101387.03;2082646;28;47346;-48
2021/10/15 02:02:14;;;;;;;;;23.25;23.00;;;;;14.67;54.38;101392.38;2091386;28;47412;-49
2021/10/15 02:03:15;;;;;;;;;23.50;23.50;;;;;14.68;53.97;101386.13;2091115;28;47301;-51
2021/10/15 02:04:15;;;;;;;;;25.75;25.25;;;;;14.68;54.50;101390.59;2084579;28;48130;-53
2021/10/15 02:05:18;;;;;;;;;23.50;22.50;;;;;14.68;54.29;101387.91;2082993;28;48171;-46
2021/10/15 02:06:18;;;;;;;;;25.20;25.20;;;;;14.67;54.59;101383.50;2083191;28;47045;-51
2021/10/15 02:07:19;;;;;;;;;21.50;20.25;;;;;14.67;54.52;101391.50;2082983;28;47305;-45
2021/10/15 02:08:19;;;;;;;;;26.25;25.50;;;;;14.65;54.26;101390.69;2083425;28;48091;-47
2021/10/15 02:09:20;;;;;;;;;25.25;23.00;;;;;14.65;54.21;101390.69;2091427;28;48147;-49
2021/10/15 02:10:21;;;;;;;;;21.25;21.25;;;;;14.64;54.21;101380.91;2091407;28;47143;-50
2021/10/15 02:11:21;;;;;;;;;23.40;22.00;;;;;14.62;54.21;101388.97;2091467;28;47357;-49
2021/10/15 02:12:21;;;;;;;;;23.25;23.25;;;;;14.61;54.17;101383.66;2087613;28;47262;-52
2021/10/15 02:13:22;;;;;;;;;21.75;21.00;;;;;14.61;54.55;101380.97;2088905;28;47863;-49
2021/10/15 02:14:22;;;;;;;;;25.25;24.50;;;;;14.62;54.49;101391.66;2090084;28;47593;-46
2021/10/15 02:15:23;;;;;;;;;23.25;23.25;;;;;14.61;54.37;101384.56;2085525;28;47208;-49
2021/10/15 02:16:24;;;;;;;;;25.75;25.75;;;;;14.61;54.36;101386.31;2088680;28;47195;-48
2021/10/15 02:17:24;;;;;;;;;28.50;28.50;;;;;14.61;54.42;101383.66;2083935;28;47589;-47
2021/10/15 02:18:25;;;;;;;;;31.50;29.25;;;;;14.60;54.75;101384.56;2087384;28;47218;-49
2021/10/15 02:19:25;;;;;;;;;32.25;30.25;;;;;14.58;54.67;101389.09;2074300;28;47275;-46
2021/10/15 02:20:26;;;;;;;;;31.75;29.75;;;;;14.60;54.79;101387.25;2081493;28;46977;-51
2021/10/15 02:21:26;;;;;;;;;35.75;33.00;;;;;14.58;54.67;101387.28;2089354;28;47196;-50
2021/10/15 02:22:27;;;;;;;;;31.25;30.25;;;;;14.58;54.91;101384.63;2079344;28;48433;-49
2021/10/15 02:23:27;;;;;;;;;31.50;30.25;;;;;14.58;55.14;101386.41;2082180;28;47002;-48
2021/10/15 02:24:28;;;;;;;;;32.75;30.00;;;;;14.57;55.19;101385.53;2090565;28;48297;-48
2021/10/15 02:25:29;;;;;;;;;30.75;29.50;;;;;14.58;55.06;101383.75;2082982;28;47350;-46
2021/10/15 02:26:30;;;;;;;;;30.40;29.80;;;;;14.58;55.18;101383.75;2082935;28;47160;-47
2021/10/15 02:27:30;;;;;;;;;33.00;30.00;;;;;14.59;55.18;101377.47;2083041;28;46216;-49
2021/10/15 02:28:31;;;;;;;;;33.00;30.75;;;;;14.58;54.90;101375.72;2082999;28;47097;-46
2021/10/15 02:29:32;;;;;;;;;33.75;30.75;;;;;14.58;54.86;101376.59;2085451;28;47210;-49
2021/10/15 02:30:32;;;;;;;;;36.00;32.75;;;;;14.58;55.25;101375.72;2090748;28;48475;-48
2021/10/15 02:31:32;;;;;;;;;33.75;31.25;;;;;14.58;55.19;101375.72;2085124;28;48550;-46
2021/10/15 02:32:33;;;;;;;;;34.25;31.50;;;;;14.59;55.04;101375.69;2083103;28;47261;-47
2021/10/15 02:33:33;;;;;;;;;30.50;30.00;;;;;14.58;55.19;101373.94;2073901;28;47259;-49
2021/10/15 02:34:34;;;;;;;;;35.75;32.00;;;;;14.58;54.91;101371.25;2065954;28;47154;-45
2021/10/15 02:35:34;;;;;;;;;33.00;31.00;;;;;14.58;55.16;101371.25;2073998;28;47352;-47
2021/10/15 02:36:35;;;;;;;;;33.25;31.00;;;;;14.58;54.83;101359.72;2090847;28;45208;-51
2021/10/15 02:37:36;;;;;;;;;32.50;31.25;;;;;14.58;55.02;101362.38;2088367;28;46543;-49
2021/10/15 02:38:37;;;;;;;;;34.20;31.60;;;;;14.58;55.36;101362.38;2091147;28;47467;-49
2021/10/15 02:39:37;;;;;;;;;23.50;22.75;;;;;14.57;55.18;101360.63;2082246;28;46054;-47
2021/10/15 02:40:38;;;;;;;;;32.50;31.25;;;;;14.57;55.32;101357.97;2074192;28;48308;-47
2021/10/15 02:41:39;;;;;;;;;34.50;32.25;;;;;14.56;55.08;101366.88;2076605;28;47358;-47
2021/10/15 02:42:40;;;;;;;;;35.80;31.40;;;;;14.54;55.02;101355.38;2087305;28;48283;-49
2021/10/15 02:43:41;;;;;;;;;36.60;32.20;;;;;14.52;55.46;101360.78;2091029;28;48383;-48
2021/10/15 02:44:42;;;;;;;;;33.25;30.00;;;;;14.52;55.28;101360.78;2090997;28;47360;-46
2021/10/15 02:45:42;;;;;;;;;32.00;29.00;;;;;14.51;55.14;101352.81;2081544;28;47216;-49
2021/10/15 02:46:44;;;;;;;;;36.50;32.50;;;;;14.49;55.42;101350.19;2082494;28;47513;-49
2021/10/15 02:47:45;;;;;;;;;28.80;28.20;;;;;14.49;55.32;101349.31;2089437;28;47321;-46
2021/10/15 02:48:46;;;;;;;;;33.50;31.00;;;;;14.48;55.32;101355.53;2091388;28;46161;-47
2021/10/15 02:49:46;;;;;;;;;38.75;32.50;;;;;14.46;55.43;101357.38;2090356;28;47373;-48
2021/10/15 02:50:47;;;;;;;;;32.75;30.25;;;;;14.46;55.26;101360.03;2091234;28;48093;-47
2021/10/15 02:51:47;;;;;;;;;30.00;29.50;;;;;14.43;55.47;101353.84;2090806;28;47669;-49
2021/10/15 02:52:47;;;;;;;;;33.75;30.75;;;;;14.43;55.68;101364.53;2091263;28;47237;-49
2021/10/15 02:53:48;;;;;;;;;33.75;30.00;;;;;14.43;55.46;101359.19;2090969;28;47633;-50
2021/10/15 02:54:48;;;;;;;;;34.50;31.75;;;;;14.43;55.69;101364.53;2091390;28;47375;-47
2021/10/15 02:55:49;;;;;;;;;33.50;30.00;;;;;14.42;55.40;101365.44;2090803;28;47491;-46
2021/10/15 02:56:49;;;;;;;;;37.75;31.75;;;;;14.42;55.97;101359.22;2091189;28;48558;-47
2021/10/15 02:57:50;;;;;;;;;35.00;32.50;;;;;14.41;55.53;101366.38;2090938;28;47328;-46
2021/10/15 02:58:51;;;;;;;;;29.00;29.00;;;;;14.42;55.82;101361.91;2091267;28;48065;-48
2021/10/15 02:59:51;;;;;;;;;33.00;30.25;;;;;14.42;55.61;101367.25;2090878;28;47245;-47
2021/10/15 03:00:51;;;;;;;;;35.75;31.00;;;;;14.41;55.55;101362.81;2091209;28;46840;-47
2021/10/15 03:01:52;;;;;;;;;31.50;27.75;;;;;14.41;55.76;101363.69;2091019;28;48364;-47
2021/10/15 03:02:55;;;;;;;;;30.50;29.25;;;;;14.40;55.68;101361.94;2091244;28;47547;-48
2021/10/15 03:03:55;;;;;;;;;33.40;30.40;;;;;14.41;55.88;101357.47;2090938;28;47254;-46
2021/10/15 03:04:56;;;;;;;;;33.00;31.50;;;;;14.41;55.84;101360.16;2081965;28;47281;-47
2021/10/15 03:05:56;;;;;;;;;26.75;26.75;;;;;14.40;55.71;101359.28;2082198;28;47422;-46
2021/10/15 03:06:56;;;;;;;;;25.00;24.75;;;;;14.40;55.82;101355.72;2087895;28;47471;-50
2021/10/15 03:07:57;;;;;;;;;27.75;25.75;;;;;14.39;55.75;101357.53;2091005;28;47198;-46
2021/10/15 03:08:57;;;;;;;;;25.50;24.50;;;;;14.39;55.63;101353.97;2074054;28;47710;-50
2021/10/15 03:09:58;;;;;;;;;28.75;27.50;;;;;14.39;55.88;101356.66;2077367;28;47245;-49
2021/10/15 03:10:58;;;;;;;;;28.50;26.75;;;;;14.39;55.61;101364.66;2085637;28;47315;-50
2021/10/15 03:11:59;;;;;;;;;32.75;30.25;;;;;14.38;55.83;101357.56;2090951;28;47202;-48
2021/10/15 03:12:59;;;;;;;;;28.00;28.00;;;;;14.38;56.04;101353.09;2091130;28;48021;-49
2021/10/15 03:14:00;;;;;;;;;31.25;30.00;;;;;14.38;56.16;101361.13;2082242;28;47032;-49
2021/10/15 03:15:00;;;;;;;;;30.00;29.50;;;;;14.38;55.93;101352.22;2081825;28;47053;-48
2021/10/15 03:16:01;;;;;;;;;33.00;29.25;;;;;14.37;55.88;101350.47;2090939;28;48491;-51
2021/10/15 03:17:02;;;;;;;;;30.25;30.00;;;;;14.38;55.76;101357.56;2090989;28;47138;-50
2021/10/15 03:18:02;;;;;;;;;30.20;28.40;;;;;14.37;55.97;101356.69;2090975;28;48013;-49
2021/10/15 03:19:03;;;;;;;;;28.00;28.00;;;;;14.39;56.01;101359.31;2091226;28;48187;-47
2021/10/15 03:20:04;;;;;;;;;31.25;30.50;;;;;14.39;55.96;101362.88;2087282;28;47355;-47
2021/10/15 03:21:05;;;;;;;;;34.80;32.20;;;;;14.40;55.94;101359.28;2084526;28;47692;-47
2021/10/15 03:22:05;;;;;;;;;36.50;33.25;;;;;14.41;55.74;101357.47;2090949;28;48143;-50
2021/10/15 03:23:06;;;;;;;;;31.50;30.25;;;;;14.41;55.71;101361.03;2090584;28;47079;-47
2021/10/15 03:24:07;;;;;;;;;35.60;32.40;;;;;14.41;55.86;101361.03;2091146;28;45140;-48
2021/10/15 03:25:07;;;;;;;;;36.00;32.00;;;;;14.40;55.71;101361.94;2090762;28;47179;-46
2021/10/15 03:26:08;;;;;;;;;32.50;31.00;;;;;14.41;55.63;101360.16;2082201;28;46981;-48
2021/10/15 03:27:08;;;;;;;;;37.50;33.00;;;;;14.40;55.55;101363.75;2081910;28;47362;-46
2021/10/15 03:28:09;;;;;;;;;33.25;31.25;;;;;14.39;55.71;101354.84;2091130;28;48113;-48
2021/10/15 03:29:09;;;;;;;;;38.00;34.25;;;;;14.38;55.78;101360.25;2090568;28;46839;-48
2021/10/15 03:30:10;;;;;;;;;40.75;34.25;;;;;14.36;55.44;101354.94;2087743;28;47264;-47
2021/10/15 03:31:10;;;;;;;;;41.75;35.50;;;;;14.34;55.74;101353.22;2084803;28;45473;-47
2021/10/15 03:32:11;;;;;;;;;40.50;34.75;;;;;14.32;55.72;101361.25;2093778;27;48219;-50
2021/10/15 03:33:11;;;;;;;;;38.00;33.50;;;;;14.31;55.61;101364.84;2090977;28;48183;-47
2021/10/15 03:34:12;;;;;;;;;38.00;33.00;;;;;14.30;55.74;101359.56;2092279;28;45117;-46
2021/10/15 03:35:12;;;;;;;;;44.00;36.00;;;;;14.28;55.78;101359.59;2094985;28;48177;-51
2021/10/15 03:36:13;;;;;;;;;42.25;36.00;;;;;14.26;55.66;101352.56;2077504;28;47004;-50
2021/10/15 03:37:13;;;;;;;;;41.75;33.00;;;;;14.24;55.80;101357.94;2078585;28;48487;-48
2021/10/15 03:38:14;;;;;;;;;40.75;35.00;;;;;14.23;55.91;101352.63;2090663;28;48146;-48
2021/10/15 03:39:15;;;;;;;;;39.50;33.00;;;;;14.20;55.79;101353.56;2090949;28;47007;-48
2021/10/15 03:40:16;;;;;;;;;39.80;35.80;;;;;14.19;55.72;101353.63;2090858;28;46384;-50
2021/10/15 03:41:16;;;;;;;;;38.75;34.25;;;;;14.17;55.75;101351.00;2081854;28;47323;-50
2021/10/15 03:42:17;;;;;;;;;33.00;31.25;;;;;14.16;55.74;101349.25;2082780;28;47095;-48
2021/10/15 03:43:17;;;;;;;;;35.75;32.00;;;;;14.16;56.06;101346.56;2082372;28;48200;-46
2021/10/15 03:44:18;;;;;;;;;38.00;34.50;;;;;14.17;55.81;101352.78;2070633;28;47202;-46
2021/10/15 03:45:18;;;;;;;;;36.75;31.50;;;;;14.17;55.90;101348.31;2081877;28;47392;-48
2021/10/15 03:46:19;;;;;;;;;37.75;33.00;;;;;14.17;55.95;101350.13;2088235;28;47161;-47
2021/10/15 03:47:19;;;;;;;;;34.50;32.25;;;;;14.18;55.96;101352.75;2085972;28;47655;-47
2021/10/15 03:48:19;;;;;;;;;32.75;31.00;;;;;14.17;55.93;101351.00;2090918;28;48062;-49
2021/10/15 03:49:20;;;;;;;;;43.00;35.25;;;;;14.19;55.92;101353.63;2090679;28;47952;-47
2021/10/15 03:50:20;;;;;;;;;36.75;32.50;;;;;14.19;55.99;101346.50;2091840;28;46999;-50
2021/10/15 03:51:21;;;;;;;;;36.50;32.25;;;;;14.21;56.17;101358.00;2092192;28;47225;-47
2021/10/15 03:52:22;;;;;;;;;32.00;29.75;;;;;14.21;56.06;101351.78;2081071;28;47082;-48
2021/10/15 03:53:22;;;;;;;;;38.00;34.00;;;;;14.22;55.77;101350.88;2083298;28;47215;-51
2021/10/15 03:54:23;;;;;;;;;38.00;34.00;;;;;14.22;56.06;101351.75;2092277;28;47121;-48
2021/10/15 03:55:24;;;;;;;;;36.25;33.50;;;;;14.21;55.98;101347.31;2092146;28;47183;-49
2021/10/15 03:56:25;;;;;;;;;37.40;32.80;;;;;14.22;56.04;101345.53;2092381;28;47132;-48
2021/10/15 03:57:25;;;;;;;;;35.50;32.00;;;;;14.23;55.90;101347.28;2091994;28;48379;-48
2021/10/15 03:58:26;;;;;;;;;40.25;34.50;;;;;14.23;55.96;101349.94;2092172;28;47000;-47
2021/10/15 03:59:26;;;;;;;;;34.00;32.25;;;;;14.22;56.06;101345.53;2083087;28;46820;-50
2021/10/15 04:00:27;;;;;;;;;38.25;34.50;;;;;14.22;56.04;101354.41;2079359;28;48094;-49
2021/10/15 04:01:27;;;;;;;;;39.00;34.75;;;;;14.22;55.71;101351.75;2078907;28;48015;-49
2021/10/15 04:02:28;;;;;;;;;38.25;33.25;;;;;14.22;55.83;101354.41;2075148;28;48369;-49
2021/10/15 04:03:28;;;;;;;;;32.00;30.75;;;;;14.24;55.76;101354.41;2082695;28;47293;-50
2021/10/15 04:04:28;;;;;;;;;43.75;35.25;;;;;14.22;56.11;101351.75;2087229;28;46077;-47
2021/10/15 04:05:29;;;;;;;;;39.25;35.50;;;;;14.24;55.90;101354.41;2082545;28;47269;-49
2021/10/15 04:06:29;;;;;;;;;39.25;34.00;;;;;14.23;56.05;101345.50;2082984;28;48290;-46
2021/10/15 04:07:30;;;;;;;;;37.25;34.00;;;;;14.24;55.70;101346.38;2089364;28;45231;-46
2021/10/15 04:08:30;;;;;;;;;38.25;33.75;;;;;14.24;55.70;101346.38;2091518;28;46253;-48
2021/10/15 04:09:31;;;;;;;;;37.00;32.75;;;;;14.24;55.95;101341.06;2088029;28;47095;-49
2021/10/15 04:10:31;;;;;;;;;38.75;35.50;;;;;14.25;56.15;101350.81;2090535;28;48079;-46
2021/10/15 04:11:32;;;;;;;;;39.75;35.00;;;;;14.25;56.06;101341.00;2084011;28;47368;-47
2021/10/15 04:12:33;;;;;;;;;41.00;36.00;;;;;14.26;56.02;101341.88;2083600;28;48669;-49
2021/10/15 04:13:33;;;;;;;;;43.00;36.50;;;;;14.27;55.86;101341.84;2085540;28;47913;-46
2021/10/15 04:14:34;;;;;;;;;36.50;33.25;;;;;14.28;56.02;101337.38;2087191;28;48653;-49
2021/10/15 04:15:34;;;;;;;;;45.50;36.25;;;;;14.29;55.73;101339.13;2091874;28;47328;-48
2021/10/15 04:16:35;;;;;;;;;43.25;36.75;;;;;14.28;55.87;101337.38;2092286;28;48099;-48
2021/10/15 04:17:35;;;;;;;;;43.50;36.75;;;;;14.30;56.09;101340.88;2091097;28;47368;-48
2021/10/15 04:18:36;;;;;;;;;38.00;34.00;;;;;14.30;55.94;101341.75;2084774;28;47188;-50
2021/10/15 04:19:36;;;;;;;;;44.00;36.25;;;;;14.32;56.00;101339.91;2090580;28;47109;-47
2021/10/15 04:20:37;;;;;;;;;45.00;37.50;;;;;14.33;56.00;101343.44;2091246;28;48442;-48
2021/10/15 04:21:37;;;;;;;;;36.50;33.25;;;;;14.33;56.04;101343.44;2086455;28;48070;-52
2021/10/15 04:22:38;;;;;;;;;38.75;35.00;;;;;14.33;55.99;101336.31;2088375;28;47140;-49
2021/10/15 04:23:39;;;;;;;;;32.75;31.25;;;;;14.34;55.88;101342.53;2082705;28;47409;-47
2021/10/15 04:24:40;;;;;;;;;38.00;34.00;;;;;14.33;55.99;101333.63;2082972;28;47386;-48
2021/10/15 04:25:40;;;;;;;;;43.60;36.60;;;;;14.33;56.06;101346.13;2091498;28;48321;-47
2021/10/15 04:26:41;;;;;;;;;41.75;36.25;;;;;14.32;56.05;101334.56;2083082;28;48163;-47
2021/10/15 04:27:41;;;;;;;;;42.25;36.00;;;;;14.32;55.68;101333.69;2080852;28;47452;-46
2021/10/15 04:28:42;;;;;;;;;39.00;33.50;;;;;14.31;56.00;101335.47;2090179;28;47249;-47
2021/10/15 04:29:43;;;;;;;;;42.75;36.00;;;;;14.31;55.74;101334.59;2088578;28;48486;-49
2021/10/15 04:30:43;;;;;;;;;38.75;35.00;;;;;14.31;55.68;101332.81;2085671;28;48279;-51
2021/10/15 04:31:44;;;;;;;;;45.00;37.25;;;;;14.29;55.66;101331.09;2090814;28;48236;-49
2021/10/15 04:32:44;;;;;;;;;42.75;36.00;;;;;14.29;56.07;101323.09;2091719;28;47685;-49
2021/10/15 04:33:45;;;;;;;;;40.50;34.50;;;;;14.28;55.71;101335.56;2091894;28;47184;-50
2021/10/15 04:34:45;;;;;;;;;38.25;35.00;;;;;14.27;55.79;101325.81;2097818;28;48016;-49
2021/10/15 04:35:46;;;;;;;;;36.00;33.25;;;;;14.26;55.86;101324.06;2088696;28;47343;-51